createdAt,value
2022-10-18T00:01:25.654Z,1
2022-10-18T00:03:09.349Z,1
2022-10-18T00:04:53.067Z,1
2022-10-18T00:06:36.769Z,1
2022-10-18T00:08:20.459Z,1
2022-10-18T00:10:04.170Z,1
2022-10-18T00:11:47.865Z,1
2022-10-18T00:13:31.567Z,1
2022-10-18T00:15:15.274Z,0
2022-10-18T00:16:58.970Z,1
2022-10-18T00:18:42.683Z,1
2022-10-18T00:20:26.385Z,1
2022-10-18T00:22:10.085Z,1
2022-10-18T00:23:53.793Z,1
2022-10-18T00:25:37.481Z,1
2022-10-18T00:27:21.193Z,1
2022-10-18T00:29:04.891Z,2
2022-10-18T00:30:48.593Z,1
2022-10-18T00:32:32.294Z,1
2022-10-18T00:34:15.994Z,1
2022-10-18T00:35:59.701Z,1
2022-10-18T00:37:43.405Z,1
2022-10-18T00:39:27.100Z,1
2022-10-18T00:41:10.798Z,1
2022-10-18T00:42:54.511Z,1
2022-10-18T00:44:38.206Z,2
2022-10-18T00:46:21.917Z,1
2022-10-18T00:48:05.606Z,1
2022-10-18T00:49:49.338Z,1
2022-10-18T00:51:33.040Z,1
2022-10-18T00:53:16.717Z,1
2022-10-18T00:55:00.422Z,1
2022-10-18T00:56:44.122Z,1
2022-10-18T00:58:27.838Z,1
2022-10-18T01:00:11.526Z,1
2022-10-18T01:01:55.224Z,1
2022-10-18T01:03:38.940Z,1
2022-10-18T01:05:22.635Z,1
2022-10-18T01:07:06.331Z,1
2022-10-18T01:08:50.043Z,1
2022-10-18T01:10:33.742Z,1
2022-10-18T01:12:17.445Z,1
2022-10-18T01:14:01.145Z,0
2022-10-18T01:15:44.853Z,1
2022-10-18T01:17:28.558Z,1
2022-10-18T01:19:12.263Z,1
2022-10-18T01:20:55.952Z,1
2022-10-18T01:22:39.657Z,1
2022-10-18T01:24:23.361Z,2
2022-10-18T01:26:07.058Z,1
2022-10-18T01:27:50.771Z,1
2022-10-18T01:29:34.466Z,1
2022-10-18T01:31:18.170Z,1
2022-10-18T01:33:01.869Z,2
2022-10-18T01:34:45.585Z,1
2022-10-18T01:36:29.278Z,1
2022-10-18T01:38:12.976Z,1
2022-10-18T01:39:56.681Z,1
2022-10-18T01:41:40.403Z,1
2022-10-18T01:43:24.100Z,1
2022-10-18T01:45:07.797Z,1
2022-10-18T01:46:51.499Z,0
2022-10-18T01:48:35.197Z,1
2022-10-18T01:50:18.898Z,1
2022-10-18T01:52:02.601Z,1
2022-10-18T01:53:46.308Z,1
2022-10-18T01:55:29.998Z,1
2022-10-18T01:57:13.704Z,1
2022-10-18T01:58:57.409Z,1
2022-10-18T02:00:41.106Z,1
2022-10-18T02:02:24.811Z,1
2022-10-18T02:04:08.519Z,1
2022-10-18T02:07:35.915Z,1
2022-10-18T02:09:19.628Z,1
2022-10-18T02:11:03.333Z,2
2022-10-18T02:12:47.027Z,1
2022-10-18T02:14:30.730Z,1
2022-10-18T02:16:14.430Z,1
2022-10-18T02:17:58.139Z,0
2022-10-18T02:19:41.859Z,1
2022-10-18T02:21:25.541Z,1
2022-10-18T02:23:09.239Z,2
2022-10-18T02:24:52.954Z,1
2022-10-18T02:26:36.655Z,0
2022-10-18T02:28:20.366Z,2
2022-10-18T02:30:04.062Z,1
2022-10-18T02:31:47.760Z,1
2022-10-18T02:33:31.460Z,1
2022-10-18T02:35:15.161Z,1
2022-10-18T02:36:58.868Z,1
2022-10-18T02:38:42.569Z,1
2022-10-18T02:40:26.273Z,1
2022-10-18T02:42:09.967Z,1
2022-10-18T02:43:53.674Z,1
2022-10-18T02:45:37.381Z,2
2022-10-18T02:47:21.078Z,1
2022-10-18T02:49:04.776Z,1
2022-10-18T02:50:48.483Z,1
2022-10-18T02:52:32.182Z,1
2022-10-18T02:54:15.888Z,1
2022-10-18T02:55:59.584Z,1
2022-10-18T02:57:43.292Z,1
2022-10-18T02:59:26.996Z,1
2022-10-18T03:01:10.689Z,1
2022-10-18T03:02:54.389Z,1
2022-10-18T03:04:38.094Z,1
2022-10-18T03:06:21.801Z,1
2022-10-18T03:08:05.514Z,1
2022-10-18T03:09:49.204Z,1
2022-10-18T03:11:32.909Z,0
2022-10-18T03:13:16.609Z,1
2022-10-18T03:15:00.304Z,1
2022-10-18T03:16:44.012Z,1
2022-10-18T03:18:27.718Z,1
2022-10-18T03:20:11.420Z,1
2022-10-18T03:21:55.126Z,1
2022-10-18T03:23:38.819Z,1
2022-10-18T03:25:22.530Z,1
2022-10-18T03:27:06.236Z,1
2022-10-18T03:28:49.925Z,2
2022-10-18T03:30:33.636Z,1
2022-10-18T03:32:17.341Z,1
2022-10-18T03:34:01.030Z,0
2022-10-18T03:35:44.741Z,1
2022-10-18T03:37:28.445Z,1
2022-10-18T03:39:12.156Z,1
2022-10-18T03:40:55.851Z,1
2022-10-18T03:42:39.547Z,1
2022-10-18T03:44:23.248Z,1
2022-10-18T03:46:06.957Z,1
2022-10-18T03:47:50.647Z,1
2022-10-18T03:49:34.371Z,1
2022-10-18T03:51:18.056Z,1
2022-10-18T03:53:01.761Z,2
2022-10-18T03:54:45.470Z,1
2022-10-18T03:56:29.164Z,1
2022-10-18T03:58:12.872Z,1
2022-10-18T03:59:56.584Z,1
2022-10-18T04:01:40.270Z,2
2022-10-18T04:03:23.978Z,1
2022-10-18T04:05:07.686Z,1
2022-10-18T04:06:51.376Z,1
2022-10-18T04:08:35.101Z,1
2022-10-18T04:10:18.782Z,1
2022-10-18T04:13:46.195Z,1
2022-10-18T04:15:29.896Z,2
2022-10-18T04:17:13.604Z,1
2022-10-18T04:18:57.301Z,1
2022-10-18T04:20:41.017Z,1
2022-10-18T04:22:24.706Z,1
2022-10-18T04:24:08.408Z,1
2022-10-18T04:25:52.110Z,1
2022-10-18T04:27:35.819Z,1
2022-10-18T04:29:19.534Z,1
2022-10-18T04:31:03.225Z,1
2022-10-18T04:32:46.946Z,1
2022-10-18T04:34:30.637Z,1
2022-10-18T04:36:14.322Z,1
2022-10-18T04:37:58.029Z,2
2022-10-18T04:39:41.727Z,1
2022-10-18T04:43:09.132Z,1
2022-10-18T04:44:52.833Z,1
2022-10-18T04:46:36.548Z,1
2022-10-18T04:48:20.244Z,1
2022-10-18T04:50:03.947Z,1
2022-10-18T04:51:47.658Z,1
2022-10-18T04:53:31.367Z,2
2022-10-18T04:55:15.049Z,1
2022-10-18T04:56:58.752Z,1
2022-10-18T04:58:42.450Z,1
2022-10-18T05:00:26.162Z,1
2022-10-18T05:02:09.882Z,1
2022-10-18T05:03:53.560Z,1
2022-10-18T05:05:37.268Z,1
2022-10-18T05:07:20.964Z,1
2022-10-18T05:09:04.670Z,1
2022-10-18T05:10:48.376Z,2
2022-10-18T05:12:32.074Z,1
2022-10-18T05:14:15.778Z,1
2022-10-18T05:15:59.480Z,2
2022-10-18T05:17:43.209Z,2
2022-10-18T05:19:26.893Z,1
2022-10-18T05:21:10.585Z,1
2022-10-18T05:22:54.430Z,2
2022-10-18T05:24:37.997Z,2
2022-10-18T05:26:21.696Z,2
2022-10-18T05:28:05.418Z,3
2022-10-18T05:29:49.122Z,4
2022-10-18T05:31:32.801Z,4
2022-10-18T05:33:16.510Z,6
2022-10-18T05:35:00.233Z,9
2022-10-18T05:36:43.922Z,11
2022-10-18T05:38:27.717Z,13
2022-10-18T05:40:11.365Z,17
2022-10-18T05:41:55.026Z,22
2022-10-18T05:43:38.726Z,25
2022-10-18T05:45:22.420Z,30
2022-10-18T05:47:06.129Z,33
2022-10-18T05:48:49.833Z,38
2022-10-18T05:50:33.535Z,42
2022-10-18T05:52:17.238Z,47
2022-10-18T05:54:00.954Z,51
2022-10-18T05:55:44.643Z,57
2022-10-18T05:57:28.353Z,62
2022-10-18T05:59:12.049Z,70
2022-10-18T06:00:55.749Z,75
2022-10-18T06:02:39.458Z,80
2022-10-18T06:04:23.152Z,87
2022-10-18T06:06:06.903Z,96
2022-10-18T06:07:50.560Z,108
2022-10-18T06:09:34.276Z,121
2022-10-18T06:11:17.964Z,137
2022-10-18T06:13:01.668Z,154
2022-10-18T06:14:45.372Z,176
2022-10-18T06:16:29.084Z,217
2022-10-18T06:18:12.774Z,252
2022-10-18T06:19:56.480Z,267
2022-10-18T06:21:40.191Z,289
2022-10-18T06:23:23.878Z,321
2022-10-18T06:25:07.594Z,352
2022-10-18T06:26:51.401Z,384
2022-10-18T06:28:34.986Z,464
2022-10-18T06:30:18.703Z,512
2022-10-18T06:32:02.392Z,522
2022-10-18T06:33:46.098Z,533
2022-10-18T06:35:29.806Z,541
2022-10-18T06:37:13.498Z,528
2022-10-18T06:38:57.204Z,502
2022-10-18T06:40:40.916Z,464
2022-10-18T06:42:24.603Z,477
2022-10-18T06:44:08.313Z,288
2022-10-18T06:45:52.011Z,279
2022-10-18T06:47:35.714Z,278
2022-10-18T06:49:19.416Z,284
2022-10-18T06:51:03.124Z,299
2022-10-18T06:52:46.825Z,309
2022-10-18T06:54:30.523Z,399
2022-10-18T06:56:14.228Z,305
2022-10-18T06:57:57.929Z,298
2022-10-18T06:59:41.629Z,336
2022-10-18T07:01:25.333Z,296
2022-10-18T07:03:09.098Z,288
2022-10-18T07:04:52.745Z,288
2022-10-18T07:06:36.502Z,285
2022-10-18T07:08:20.148Z,285
2022-10-18T07:10:03.855Z,285
2022-10-18T07:11:47.550Z,290
2022-10-18T07:13:31.256Z,295
2022-10-18T07:15:14.995Z,300
2022-10-18T07:16:58.664Z,311
2022-10-18T07:18:42.366Z,324
2022-10-18T07:20:26.075Z,338
2022-10-18T07:22:09.775Z,352
2022-10-18T07:23:53.484Z,364
2022-10-18T07:25:37.178Z,381
2022-10-18T07:27:20.883Z,399
2022-10-18T07:29:04.577Z,418
2022-10-18T07:30:48.296Z,435
2022-10-18T07:32:31.987Z,450
2022-10-18T07:34:15.701Z,467
2022-10-18T07:35:59.387Z,484
2022-10-18T07:37:43.092Z,505
2022-10-18T07:39:26.794Z,524
2022-10-18T07:41:10.534Z,542
2022-10-18T07:42:54.197Z,563
2022-10-18T07:44:37.896Z,567
2022-10-18T07:46:21.621Z,590
2022-10-18T07:48:05.306Z,617
2022-10-18T07:49:49.014Z,647
2022-10-18T07:51:32.710Z,692
2022-10-18T07:53:16.410Z,713
2022-10-18T07:55:00.117Z,736
2022-10-18T07:56:43.842Z,741
2022-10-18T07:58:27.522Z,741
2022-10-18T08:00:11.225Z,741
2022-10-18T08:01:54.922Z,741
2022-10-18T08:03:38.626Z,742
2022-10-18T08:05:22.330Z,742
2022-10-18T08:07:06.027Z,741
2022-10-18T08:08:49.736Z,741
2022-10-18T08:10:33.439Z,740
2022-10-18T08:12:17.139Z,742
2022-10-18T08:14:00.843Z,741
2022-10-18T08:15:44.535Z,741
2022-10-18T08:17:28.244Z,741
2022-10-18T08:19:11.943Z,742
2022-10-18T08:20:55.640Z,741
2022-10-18T08:22:39.346Z,741
2022-10-18T08:24:23.049Z,740
2022-10-18T08:26:06.755Z,742
2022-10-18T08:27:50.452Z,741
2022-10-18T08:29:34.171Z,741
2022-10-18T08:31:17.983Z,742
2022-10-18T08:33:01.715Z,742
2022-10-18T08:34:45.378Z,740
2022-10-18T08:36:29.091Z,742
2022-10-18T08:38:12.808Z,741
2022-10-18T08:39:56.537Z,742
2022-10-18T08:41:40.160Z,741
2022-10-18T08:43:23.775Z,741
2022-10-18T08:45:07.622Z,741
2022-10-18T08:46:51.329Z,741
2022-10-18T08:48:34.888Z,741
2022-10-18T08:50:18.616Z,741
2022-10-18T08:52:02.427Z,733
2022-10-18T08:53:46.136Z,742
2022-10-18T08:55:29.833Z,741
2022-10-18T08:57:13.540Z,741
2022-10-18T08:58:57.244Z,741
2022-10-18T09:00:40.941Z,742
2022-10-18T09:02:24.669Z,742
2022-10-18T09:04:08.208Z,740
2022-10-18T09:05:52.027Z,740
2022-10-18T09:07:35.761Z,742
2022-10-18T09:09:19.309Z,741
2022-10-18T09:11:03.022Z,741
2022-10-18T09:12:46.782Z,741
2022-10-18T09:14:30.442Z,742
2022-10-18T09:16:14.150Z,742
2022-10-18T09:17:57.857Z,740
2022-10-18T09:19:41.630Z,741
2022-10-18T09:21:25.227Z,742
2022-10-18T09:23:09.022Z,741
2022-10-18T09:24:52.726Z,740
2022-10-18T09:26:36.442Z,742
2022-10-18T09:28:20.081Z,742
2022-10-18T09:30:03.743Z,742
2022-10-18T09:31:47.473Z,741
2022-10-18T09:33:31.243Z,741
2022-10-18T09:35:14.846Z,741
2022-10-18T09:36:58.559Z,742
2022-10-18T09:38:42.287Z,740
2022-10-18T09:40:25.961Z,741
2022-10-18T09:42:09.677Z,742
2022-10-18T09:43:53.395Z,742
2022-10-18T09:45:37.150Z,741
2022-10-18T09:47:20.770Z,740
2022-10-18T09:49:04.470Z,742
2022-10-18T09:50:48.172Z,742
2022-10-18T09:52:31.985Z,733
2022-10-18T09:54:15.669Z,740
2022-10-18T09:55:59.286Z,742
2022-10-18T09:57:43.045Z,742
2022-10-18T09:59:26.686Z,742
2022-10-18T10:01:10.390Z,741
2022-10-18T10:02:54.148Z,741
2022-10-18T10:04:37.823Z,742
2022-10-18T10:06:21.495Z,741
2022-10-18T10:08:05.231Z,742
2022-10-18T10:09:48.963Z,741
2022-10-18T10:11:32.601Z,741
2022-10-18T10:13:16.302Z,742
2022-10-18T10:15:00.013Z,741
2022-10-18T10:16:43.701Z,742
2022-10-18T10:18:27.438Z,741
2022-10-18T10:20:11.113Z,743
2022-10-18T10:21:54.803Z,741
2022-10-18T10:23:38.520Z,742
2022-10-18T10:25:22.219Z,734
2022-10-18T10:27:05.941Z,742
2022-10-18T10:28:49.632Z,741
2022-10-18T10:30:33.326Z,741
2022-10-18T10:32:17.021Z,742
2022-10-18T10:34:00.732Z,742
2022-10-18T10:35:44.452Z,741
2022-10-18T10:37:28.164Z,741
2022-10-18T10:39:11.863Z,741
2022-10-18T10:40:55.563Z,743
2022-10-18T10:42:39.304Z,741
2022-10-18T10:44:23.015Z,741
2022-10-18T10:46:06.667Z,742
2022-10-18T10:47:50.369Z,742
2022-10-18T10:49:34.052Z,741
2022-10-18T10:51:17.809Z,742
2022-10-18T10:53:01.463Z,742
2022-10-18T10:54:45.155Z,742
2022-10-18T10:56:28.884Z,742
2022-10-18T10:58:12.657Z,740
2022-10-18T10:59:56.265Z,741
2022-10-18T11:01:39.967Z,741
2022-10-18T11:03:23.679Z,742
2022-10-18T11:05:07.375Z,741
2022-10-18T11:06:51.110Z,741
2022-10-18T11:08:34.911Z,742
2022-10-18T11:10:18.480Z,742
2022-10-18T11:12:02.187Z,733
2022-10-18T11:13:45.924Z,741
2022-10-18T11:15:29.588Z,742
2022-10-18T11:17:13.285Z,742
2022-10-18T11:18:56.990Z,740
2022-10-18T11:20:40.694Z,742
2022-10-18T11:22:24.444Z,742
2022-10-18T11:24:08.094Z,742
2022-10-18T11:25:51.798Z,741
2022-10-18T11:27:35.499Z,741
2022-10-18T11:29:19.212Z,741
2022-10-18T11:31:02.911Z,742
2022-10-18T11:32:46.694Z,741
2022-10-18T11:34:30.314Z,741
2022-10-18T11:36:14.009Z,742
2022-10-18T11:37:57.713Z,742
2022-10-18T11:39:41.423Z,740
2022-10-18T11:41:25.159Z,741
2022-10-18T11:43:08.824Z,742
2022-10-18T11:44:52.567Z,741
2022-10-18T11:46:36.251Z,741
2022-10-18T11:48:19.931Z,742
2022-10-18T11:50:03.671Z,742
2022-10-18T11:51:47.334Z,742
2022-10-18T11:53:31.042Z,741
2022-10-18T11:55:14.739Z,740
2022-10-18T11:56:58.437Z,741
2022-10-18T11:58:42.140Z,741
2022-10-18T12:00:25.846Z,741
2022-10-18T12:02:09.549Z,742
2022-10-18T12:03:53.246Z,742
2022-10-18T12:05:36.954Z,742
2022-10-18T12:07:20.674Z,741
2022-10-18T12:09:04.354Z,741
2022-10-18T12:10:48.066Z,742
2022-10-18T12:12:31.764Z,734
2022-10-18T12:14:15.474Z,742
2022-10-18T12:15:59.169Z,741
2022-10-18T12:17:42.899Z,741
2022-10-18T12:19:26.573Z,742
2022-10-18T12:21:10.279Z,742
2022-10-18T12:22:53.989Z,741
2022-10-18T12:24:37.676Z,741
2022-10-18T12:26:21.385Z,741
2022-10-18T12:28:05.084Z,742
2022-10-18T12:29:48.787Z,741
2022-10-18T12:31:32.486Z,741
2022-10-18T12:33:16.193Z,742
2022-10-18T12:34:59.933Z,743
2022-10-18T12:36:43.594Z,742
2022-10-18T12:38:27.310Z,742
2022-10-18T12:40:10.997Z,743
2022-10-18T12:41:54.716Z,743
2022-10-18T12:43:38.418Z,742
2022-10-18T12:45:22.109Z,740
2022-10-18T12:47:05.816Z,742
2022-10-18T12:48:49.510Z,742
2022-10-18T12:50:33.208Z,742
2022-10-18T12:52:16.913Z,742
2022-10-18T12:54:00.621Z,742
2022-10-18T12:55:44.346Z,742
2022-10-18T12:57:28.075Z,742
2022-10-18T12:59:11.761Z,733
2022-10-18T13:00:55.487Z,742
2022-10-18T13:02:39.175Z,743
2022-10-18T13:04:22.827Z,742
2022-10-18T13:06:06.534Z,742
2022-10-18T13:07:50.237Z,743
2022-10-18T13:09:33.964Z,742
2022-10-18T13:11:17.643Z,742
2022-10-18T13:13:01.349Z,732
2022-10-18T13:14:45.056Z,742
2022-10-18T13:16:28.768Z,743
2022-10-18T13:18:12.458Z,743
2022-10-18T13:19:56.150Z,741
2022-10-18T13:21:39.865Z,743
2022-10-18T13:23:23.557Z,743
2022-10-18T13:25:07.276Z,743
2022-10-18T13:26:50.991Z,741
2022-10-18T13:28:34.672Z,742
2022-10-18T13:30:18.366Z,743
2022-10-18T13:32:02.081Z,743
2022-10-18T13:33:45.886Z,741
2022-10-18T13:35:29.483Z,742
2022-10-18T13:37:13.175Z,743
2022-10-18T13:38:56.907Z,743
2022-10-18T13:40:40.585Z,741
2022-10-18T13:42:24.285Z,742
2022-10-18T13:44:07.999Z,742
2022-10-18T13:45:51.681Z,743
2022-10-18T13:47:35.397Z,742
2022-10-18T13:49:19.099Z,742
2022-10-18T13:51:02.810Z,743
2022-10-18T13:52:46.497Z,743
2022-10-18T13:54:30.204Z,742
2022-10-18T13:56:13.899Z,742
2022-10-18T13:57:57.606Z,743
2022-10-18T13:59:41.311Z,742
2022-10-18T14:01:25.009Z,743
2022-10-18T14:03:08.716Z,743
2022-10-18T14:04:52.427Z,743
2022-10-18T14:06:36.138Z,744
2022-10-18T14:08:19.933Z,742
2022-10-18T14:10:03.546Z,742
2022-10-18T14:11:47.260Z,743
2022-10-18T14:13:30.956Z,734
2022-10-18T14:15:14.647Z,744
2022-10-18T14:16:58.340Z,743
2022-10-18T14:18:42.043Z,743
2022-10-18T14:20:25.742Z,743
2022-10-18T14:22:09.477Z,743
2022-10-18T14:23:53.170Z,742
2022-10-18T14:25:36.853Z,743
2022-10-18T14:27:20.551Z,742
2022-10-18T14:29:04.285Z,743
2022-10-18T14:30:47.957Z,742
2022-10-18T14:32:31.702Z,743
2022-10-18T14:34:15.407Z,743
2022-10-18T14:35:59.074Z,743
2022-10-18T14:37:42.809Z,741
2022-10-18T14:39:26.485Z,732
2022-10-18T14:41:10.177Z,700
2022-10-18T14:42:53.921Z,681
2022-10-18T14:44:37.579Z,679
2022-10-18T14:46:21.286Z,716
2022-10-18T14:48:04.983Z,743
2022-10-18T14:49:48.697Z,743
2022-10-18T14:51:32.391Z,742
2022-10-18T14:53:16.096Z,742
2022-10-18T14:54:59.808Z,742
2022-10-18T14:56:43.525Z,743
2022-10-18T14:58:27.203Z,742
2022-10-18T15:00:10.908Z,742
2022-10-18T15:01:54.609Z,743
2022-10-18T15:03:38.347Z,743
2022-10-18T15:05:22.009Z,742
2022-10-18T15:07:05.706Z,743
2022-10-18T15:08:49.429Z,743
2022-10-18T15:10:33.106Z,743
2022-10-18T15:12:16.813Z,743
2022-10-18T15:14:00.520Z,743
2022-10-18T15:15:44.225Z,743
2022-10-18T15:17:27.940Z,743
2022-10-18T15:19:11.616Z,742
2022-10-18T15:20:55.339Z,743
2022-10-18T15:22:39.034Z,743
2022-10-18T15:24:22.721Z,743
2022-10-18T15:26:06.427Z,716
2022-10-18T15:27:50.131Z,668
2022-10-18T15:29:33.843Z,632
2022-10-18T15:31:17.532Z,603
2022-10-18T15:33:01.244Z,743
2022-10-18T15:34:44.937Z,743
2022-10-18T15:36:28.775Z,671
2022-10-18T15:38:12.342Z,617
2022-10-18T15:39:56.066Z,576
2022-10-18T15:41:39.755Z,574
2022-10-18T15:43:23.446Z,578
2022-10-18T15:45:07.151Z,596
2022-10-18T15:46:50.866Z,493
2022-10-18T15:48:34.556Z,467
2022-10-18T15:50:18.288Z,464
2022-10-18T15:52:01.977Z,443
2022-10-18T15:53:45.670Z,427
2022-10-18T15:55:29.365Z,408
2022-10-18T15:57:13.067Z,397
2022-10-18T15:58:56.770Z,401
2022-10-18T16:00:40.479Z,386
2022-10-18T16:02:24.172Z,436
2022-10-18T16:04:07.879Z,445
2022-10-18T16:05:51.574Z,389
2022-10-18T16:07:35.277Z,335
2022-10-18T16:09:18.987Z,304
2022-10-18T16:11:02.676Z,261
2022-10-18T16:12:46.460Z,230
2022-10-18T16:14:30.090Z,205
2022-10-18T16:16:13.831Z,174
2022-10-18T16:17:57.492Z,135
2022-10-18T16:19:41.194Z,101
2022-10-18T16:21:24.898Z,74
2022-10-18T16:23:08.604Z,64
2022-10-18T16:24:52.324Z,59
2022-10-18T16:26:36.006Z,49
2022-10-18T16:28:19.712Z,42
2022-10-18T16:30:03.404Z,37
2022-10-18T16:31:47.109Z,33
2022-10-18T16:33:30.816Z,29
2022-10-18T16:35:14.514Z,26
2022-10-18T16:36:58.325Z,23
2022-10-18T16:38:41.918Z,19
2022-10-18T16:40:25.624Z,16
2022-10-18T16:42:09.416Z,12
2022-10-18T16:43:53.036Z,10
2022-10-18T16:45:36.728Z,8
2022-10-18T16:47:20.504Z,7
2022-10-18T16:49:04.273Z,4
2022-10-18T16:50:47.839Z,4
2022-10-18T16:52:31.541Z,3
2022-10-18T16:54:15.274Z,2
2022-10-18T16:55:58.980Z,2
2022-10-18T16:57:42.648Z,2
2022-10-18T16:59:26.530Z,2
2022-10-18T17:01:10.058Z,2
2022-10-18T17:02:53.792Z,1
2022-10-18T17:04:37.465Z,1
2022-10-18T17:06:21.164Z,1
2022-10-18T17:08:04.861Z,2
2022-10-18T17:09:48.572Z,1
2022-10-18T17:11:32.265Z,1
2022-10-18T17:13:15.971Z,1
2022-10-18T17:14:59.675Z,1
2022-10-18T17:16:43.373Z,1
2022-10-18T17:18:27.076Z,1
2022-10-18T17:20:10.866Z,0
2022-10-18T17:21:54.485Z,1
2022-10-18T17:23:38.186Z,2
2022-10-18T17:25:21.949Z,1
2022-10-18T17:27:05.674Z,1
2022-10-18T17:28:49.298Z,1
2022-10-18T17:30:32.990Z,2
2022-10-18T17:32:16.693Z,2
2022-10-18T17:34:00.399Z,1
2022-10-18T17:35:44.118Z,1
2022-10-18T17:37:27.816Z,0
2022-10-18T17:39:11.503Z,2
2022-10-18T17:40:55.214Z,1
2022-10-18T17:42:38.915Z,1
2022-10-18T17:44:22.613Z,1
2022-10-18T17:46:06.356Z,2
2022-10-18T17:47:50.018Z,1
2022-10-18T17:49:33.720Z,1
2022-10-18T17:51:17.420Z,1
2022-10-18T17:53:01.184Z,2
2022-10-18T17:54:44.846Z,1
2022-10-18T17:56:28.523Z,2
2022-10-18T17:58:12.218Z,1
2022-10-18T17:59:55.926Z,1
2022-10-18T18:01:39.715Z,2
2022-10-18T18:03:23.332Z,2
2022-10-18T18:05:07.035Z,2
2022-10-18T18:06:50.750Z,1
2022-10-18T18:08:34.439Z,2
2022-10-18T18:10:18.141Z,1
2022-10-18T18:12:01.841Z,1
2022-10-18T18:13:45.541Z,1
2022-10-18T18:15:29.241Z,1
2022-10-18T18:17:12.964Z,1
2022-10-18T18:18:56.655Z,1
2022-10-18T18:20:40.359Z,1
2022-10-18T18:22:24.057Z,1
2022-10-18T18:24:07.762Z,2
2022-10-18T18:25:51.469Z,1
2022-10-18T18:27:35.169Z,1
2022-10-18T18:29:18.901Z,1
2022-10-18T18:31:02.571Z,1
2022-10-18T18:32:46.283Z,1
2022-10-18T18:34:29.970Z,1
2022-10-18T18:36:13.676Z,2
2022-10-18T18:37:57.400Z,1
2022-10-18T18:39:41.116Z,1
2022-10-18T18:41:24.779Z,1
2022-10-18T18:43:08.490Z,1
2022-10-18T18:44:52.188Z,1
2022-10-18T18:46:35.893Z,1
2022-10-18T18:48:19.586Z,2
2022-10-18T18:50:03.305Z,1
2022-10-18T18:51:47.018Z,1
2022-10-18T18:53:30.699Z,1
2022-10-18T18:55:14.405Z,2
2022-10-18T18:56:58.099Z,1
2022-10-18T18:58:41.806Z,1
2022-10-18T19:00:25.514Z,8
2022-10-18T19:02:09.209Z,9
2022-10-18T19:03:52.917Z,9
2022-10-18T19:05:36.613Z,9
2022-10-18T19:07:20.320Z,8
2022-10-18T19:09:04.029Z,8
2022-10-18T19:10:47.724Z,9
2022-10-18T19:12:31.427Z,16
2022-10-18T19:14:15.144Z,16
2022-10-18T19:15:58.832Z,16
2022-10-18T19:17:42.541Z,16
2022-10-18T19:19:26.230Z,9
2022-10-18T19:21:09.936Z,9
2022-10-18T19:22:53.640Z,9
2022-10-18T19:24:37.332Z,9
2022-10-18T19:26:21.041Z,22
2022-10-18T19:28:04.746Z,23
2022-10-18T19:29:48.448Z,22
2022-10-18T19:31:32.155Z,22
2022-10-18T19:33:15.855Z,22
2022-10-18T19:34:59.558Z,22
2022-10-18T19:36:43.269Z,22
2022-10-18T19:38:26.962Z,24
2022-10-18T19:40:10.679Z,24
2022-10-18T19:41:54.393Z,23
2022-10-18T19:43:38.076Z,23
2022-10-18T19:45:21.802Z,23
2022-10-18T19:47:05.536Z,22
2022-10-18T19:48:49.182Z,24
2022-10-18T19:50:32.892Z,25
2022-10-18T19:52:16.641Z,25
2022-10-18T19:54:00.330Z,25
2022-10-18T19:55:44.078Z,25
2022-10-18T19:57:27.782Z,25
2022-10-18T19:59:11.451Z,26
2022-10-18T20:00:55.131Z,25
2022-10-18T20:02:38.901Z,25
2022-10-18T20:04:22.538Z,25
2022-10-18T20:06:06.200Z,26
2022-10-18T20:07:50.016Z,25
2022-10-18T20:09:33.663Z,25
2022-10-18T20:11:17.347Z,25
2022-10-18T20:13:01.030Z,25
2022-10-18T20:14:44.712Z,25
2022-10-18T20:16:28.432Z,25
2022-10-18T20:18:12.118Z,26
2022-10-18T20:19:55.838Z,25
2022-10-18T20:21:39.568Z,25
2022-10-18T20:23:23.268Z,25
2022-10-18T20:25:06.926Z,25
2022-10-18T20:26:50.629Z,25
2022-10-18T20:28:34.337Z,26
2022-10-18T20:30:18.101Z,25
2022-10-18T20:32:01.811Z,2
2022-10-18T20:33:45.432Z,3
2022-10-18T20:35:29.150Z,2
2022-10-18T20:37:12.837Z,2
2022-10-18T20:38:56.541Z,2
2022-10-18T20:40:40.315Z,2
2022-10-18T20:42:23.956Z,1
2022-10-18T20:44:07.656Z,2
2022-10-18T20:45:51.376Z,2
2022-10-18T20:47:35.134Z,2
2022-10-18T20:49:18.821Z,3
2022-10-18T20:51:02.465Z,2
2022-10-18T20:52:46.232Z,2
2022-10-18T20:54:29.874Z,2
2022-10-18T20:56:13.570Z,1
2022-10-18T20:57:57.288Z,2
2022-10-18T20:59:41.006Z,2
2022-10-18T21:01:24.735Z,2
2022-10-18T21:03:08.395Z,3
2022-10-18T21:04:52.112Z,2
2022-10-18T21:06:35.780Z,2
2022-10-18T21:08:19.480Z,2
2022-10-18T21:10:03.220Z,2
2022-10-18T21:11:46.978Z,2
2022-10-18T21:13:30.586Z,10
2022-10-18T21:15:14.308Z,10
2022-10-18T21:16:57.994Z,10
2022-10-18T21:18:41.691Z,10
2022-10-18T21:20:25.395Z,10
2022-10-18T21:22:09.154Z,9
2022-10-18T21:23:52.813Z,11
2022-10-18T21:25:36.508Z,10
2022-10-18T21:27:20.310Z,10
2022-10-18T21:29:03.922Z,10
2022-10-18T21:30:47.608Z,10
2022-10-18T21:32:31.311Z,10
2022-10-18T21:34:15.029Z,10
2022-10-18T21:35:58.721Z,10
2022-10-18T21:37:42.429Z,10
2022-10-18T21:39:26.121Z,9
2022-10-18T21:41:09.857Z,10
2022-10-18T21:42:53.576Z,10
2022-10-18T21:44:37.221Z,9
2022-10-18T21:46:20.929Z,10
2022-10-18T21:48:04.707Z,10
2022-10-18T21:49:48.401Z,10
2022-10-18T21:51:32.042Z,10
2022-10-18T21:53:15.746Z,9
2022-10-18T21:54:59.451Z,2
2022-10-18T21:56:43.153Z,3
2022-10-18T21:58:26.872Z,2
2022-10-18T22:00:10.621Z,2
2022-10-18T22:01:54.320Z,2
2022-10-18T22:03:37.975Z,2
2022-10-18T22:05:21.670Z,2
2022-10-18T22:07:05.375Z,2
2022-10-18T22:08:49.068Z,2
2022-10-18T22:10:32.769Z,2
2022-10-18T22:12:16.472Z,10
2022-10-18T22:14:00.176Z,10
2022-10-18T22:15:43.867Z,10
2022-10-18T22:17:27.578Z,10
2022-10-18T22:19:11.334Z,2
2022-10-18T22:20:54.980Z,2
2022-10-18T22:22:38.682Z,3
2022-10-18T22:24:22.492Z,2
2022-10-18T22:26:06.088Z,3
2022-10-18T22:27:49.793Z,2
2022-10-18T22:29:33.492Z,1
2022-10-18T22:31:17.195Z,1
2022-10-18T22:33:00.903Z,1
2022-10-18T22:34:44.598Z,2
2022-10-18T22:36:28.302Z,2
2022-10-18T22:38:12.041Z,2
2022-10-18T22:39:55.711Z,9
2022-10-18T22:41:39.414Z,9
2022-10-18T22:43:23.129Z,9
2022-10-18T22:45:06.814Z,9
2022-10-18T22:46:50.519Z,2
2022-10-18T22:48:34.223Z,2
2022-10-18T22:50:17.919Z,2
2022-10-18T22:52:01.662Z,2
2022-10-18T22:53:45.326Z,1
2022-10-18T22:55:29.027Z,1
2022-10-18T22:57:12.726Z,1
2022-10-18T22:58:56.427Z,2
2022-10-18T23:00:40.133Z,1
2022-10-18T23:02:23.863Z,1
2022-10-18T23:04:07.555Z,2
2022-10-18T23:05:51.247Z,1
2022-10-18T23:07:34.943Z,1
2022-10-18T23:09:18.668Z,2
2022-10-18T23:11:02.347Z,2
2022-10-18T23:12:46.064Z,1
2022-10-18T23:14:29.750Z,1
2022-10-18T23:16:13.466Z,1
2022-10-18T23:17:57.163Z,2
2022-10-18T23:19:40.865Z,1
2022-10-18T23:21:24.563Z,1
2022-10-18T23:23:08.274Z,1
2022-10-18T23:24:51.972Z,10
2022-10-18T23:26:35.677Z,10
2022-10-18T23:28:19.373Z,9
2022-10-18T23:30:03.079Z,10
2022-10-18T23:31:46.788Z,2
2022-10-18T23:33:30.473Z,3
2022-10-18T23:35:14.196Z,2
2022-10-18T23:36:57.887Z,1
2022-10-18T23:38:41.584Z,1
2022-10-18T23:40:25.296Z,1
2022-10-18T23:42:08.993Z,1
2022-10-18T23:43:52.696Z,2
2022-10-18T23:45:36.442Z,2
2022-10-18T23:47:20.156Z,2
2022-10-18T23:49:03.842Z,1
2022-10-18T23:50:47.507Z,2
2022-10-18T23:52:31.203Z,1
2022-10-18T23:54:14.914Z,0
2022-10-18T23:55:58.609Z,1
2022-10-18T23:57:42.313Z,9
